Eships Agamid — ZDHS9 — position and weather

sailwx.info

Track history (hours):
 
Tides and Currents Weather Stations Pressure Air Temp Water Temp Dewpoint Dewpoint Depression Visibility Wind Speed Wind Dir Waves Ship Positions

Eships Agamid

Last reported at 2014-Nov-21 22:33 UTC. Time now 2014-Nov-22 10:36 UTC.
Position N 47°08' W 002°26'.

Length 128 m; draft 6 m.

Type: Tanker. MMSI: 236355000.

Date/timePositionNaut miles runAvg speedWind from/ knotsBaromVisibWave heightAir tempDewpointWater temp
2014-Nov-21 22:33N 47°08' W 002°26'3 1.5
2014-Nov-21 20:32N 47°05' W 002°26'58 9.2
2014-Nov-21 14:13N 47°40' W 003°34'710.8
2014-Nov-21 13:33N 47°42' W 003°23'3 2.5
2014-Nov-21 12:32N 47°44' W 003°21'0 0.0
2014-Nov-21 11:32N 47°44' W 003°21'0 0.0
2014-Nov-21 10:32N 47°44' W 003°21'0 0.0
2014-Nov-21 09:32N 47°44' W 003°21'0 0.0
2014-Nov-21 08:34N 47°44' W 003°21'0 0.0
2014-Nov-21 07:33N 47°44' W 003°21'0 0.0
2014-Nov-21 06:33N 47°44' W 003°21'0 0.0
2014-Nov-21 05:34N 47°44' W 003°21'0 0.0
2014-Nov-21 04:33N 47°44' W 003°21'0 0.0
2014-Nov-21 03:33N 47°44' W 003°21'0 0.0
2014-Nov-21 02:33N 47°44' W 003°21'0 0.0
2014-Nov-21 01:34N 47°44' W 003°21'0 0.0
2014-Nov-21 00:34N 47°44' W 003°21'0 0.0
2014-Nov-20 23:34N 47°44' W 003°21'0 0.0
2014-Nov-20 22:34N 47°44' W 003°21'0 0.0
2014-Nov-20 21:34N 47°44' W 003°21'0 0.0
2014-Nov-20 20:34N 47°44' W 003°21'0 0.0
2014-Nov-20 19:34N 47°44' W 003°21'0 0.0
2014-Nov-20 18:33N 47°44' W 003°21'0 0.0
2014-Nov-20 17:34N 47°44' W 003°21'0 0.0
2014-Nov-20 16:33N 47°44' W 003°21'0 0.0
2014-Nov-20 15:34N 47°44' W 003°21'0 0.0
2014-Nov-20 14:34N 47°44' W 003°21'0 0.0
2014-Nov-20 13:34N 47°44' W 003°21'5 4.7
2014-Nov-20 12:33N 47°40' W 003°26'55 6.4
2014-Nov-20 04:06N 47°08' W 002°21'610.5
2014-Nov-20 03:33N 47°13' W 002°16'61 1.2
2014-Nov-18 00:21N 47°39' W 003°37'8 9.9
2014-Nov-17 23:33N 47°40' W 003°26'5 4.8
2014-Nov-17 22:32N 47°44' W 003°21'0 0.0
2014-Nov-17 21:32N 47°44' W 003°21'0 0.0
2014-Nov-17 20:33N 47°44' W 003°21'0 0.0
2014-Nov-17 19:33N 47°44' W 003°21'0 0.0
2014-Nov-17 18:33N 47°44' W 003°21'0 0.0
2014-Nov-17 17:33N 47°44' W 003°21'0 0.0
2014-Nov-17 16:34N 47°44' W 003°21'0 0.0
2014-Nov-17 15:33N 47°44' W 003°21'0 0.0
2014-Nov-17 14:34N 47°44' W 003°21'0 0.0
2014-Nov-17 13:33N 47°44' W 003°21'0 0.0
2014-Nov-17 12:33N 47°44' W 003°21'0 0.0
2014-Nov-17 11:33N 47°44' W 003°21'0 0.0
2014-Nov-17 10:33N 47°44' W 003°21'0 0.0
2014-Nov-17 09:33N 47°44' W 003°21'0 0.0
2014-Nov-17 08:33N 47°44' W 003°21'0 0.0
2014-Nov-17 07:33N 47°44' W 003°21'0 0.0
2014-Nov-17 06:34N 47°44' W 003°21'0 0.0
2014-Nov-17 05:33N 47°44' W 003°21'0 0.0
2014-Nov-17 04:33N 47°44' W 003°21'0 0.0
2014-Nov-17 03:33N 47°44' W 003°21'0 0.0
2014-Nov-17 02:33N 47°44' W 003°21'0 0.0
2014-Nov-17 01:33N 47°44' W 003°21'0 0.0
2014-Nov-17 00:33N 47°44' W 003°21'0 0.0
2014-Nov-16 23:33N 47°44' W 003°21'1 0.8
2014-Nov-16 22:33N 47°43' W 003°22'7 0.1
2014-Nov-14 20:29N 47°40' W 003°32'7 7.7
2014-Nov-14 19:34N 47°43' W 003°22'1 1.0
2014-Nov-14 18:33N 47°44' W 003°21'0 0.0
2014-Nov-14 17:33N 47°44' W 003°21'0 0.0
2014-Nov-14 16:34N 47°44' W 003°21'0 0.0
2014-Nov-14 15:34N 47°44' W 003°21'0 0.0
2014-Nov-14 14:33N 47°44' W 003°21'0 0.0
2014-Nov-14 12:34N 47°44' W 003°21'0 0.0
2014-Nov-14 11:33N 47°44' W 003°21'0 0.0
2014-Nov-14 10:34N 47°44' W 003°21'0 0.0
2014-Nov-14 09:34N 47°44' W 003°21'0 0.0
2014-Nov-14 08:34N 47°44' W 003°21'0 0.0
2014-Nov-14 07:34N 47°44' W 003°21'0 0.0
2014-Nov-14 06:34N 47°44' W 003°21'0 0.0
2014-Nov-14 05:34N 47°44' W 003°21'0 0.0
2014-Nov-14 04:34N 47°44' W 003°21'0 0.0
2014-Nov-14 03:34N 47°44' W 003°21'0 0.0
2014-Nov-14 02:34N 47°44' W 003°21'0 0.0
2014-Nov-14 01:34N 47°44' W 003°21'0 0.0
2014-Nov-14 00:34N 47°44' W 003°21'0 0.0
2014-Nov-13 23:34N 47°44' W 003°21'0 0.0
2014-Nov-13 22:34N 47°44' W 003°21'0 0.0
2014-Nov-13 21:34N 47°44' W 003°21'0 0.0
2014-Nov-13 20:34N 47°44' W 003°21'0 0.0
2014-Nov-13 19:34N 47°44' W 003°21'1 0.8
2014-Nov-13 18:33N 47°43' W 003°22'2010.1
2014-Nov-13 16:33N 47°35' W 003°49'  
Track history (hours):
 
Tides and Currents Weather Stations Pressure Air Temp Water Temp Dewpoint Dewpoint Depression Visibility Wind Speed Wind Dir Waves Ship Positions

Eships Agamid

Last reported at 2014-Nov-21 22:33 UTC. Time now 2014-Nov-22 10:36 UTC.
Position N 47°08' W 002°26'.

Length 128 m; draft 6 m.

Type: Tanker. MMSI: 236355000.

Date/timePositionNaut miles runAvg speedWind from/ knotsBaromVisibWave heightAir tempDewpointWater temp
2014-Nov-21 22:33N 47°08' W 002°26'3 1.5
2014-Nov-21 20:32N 47°05' W 002°26'58 9.2
2014-Nov-21 14:13N 47°40' W 003°34'710.8
2014-Nov-21 13:33N 47°42' W 003°23'3 2.5
2014-Nov-21 12:32N 47°44' W 003°21'0 0.0
2014-Nov-21 11:32N 47°44' W 003°21'0 0.0
2014-Nov-21 10:32N 47°44' W 003°21'0 0.0
2014-Nov-21 09:32N 47°44' W 003°21'0 0.0
2014-Nov-21 08:34N 47°44' W 003°21'0 0.0
2014-Nov-21 07:33N 47°44' W 003°21'0 0.0
2014-Nov-21 06:33N 47°44' W 003°21'0 0.0
2014-Nov-21 05:34N 47°44' W 003°21'0 0.0
2014-Nov-21 04:33N 47°44' W 003°21'0 0.0
2014-Nov-21 03:33N 47°44' W 003°21'0 0.0
2014-Nov-21 02:33N 47°44' W 003°21'0 0.0
2014-Nov-21 01:34N 47°44' W 003°21'0 0.0
2014-Nov-21 00:34N 47°44' W 003°21'0 0.0
2014-Nov-20 23:34N 47°44' W 003°21'0 0.0
2014-Nov-20 22:34N 47°44' W 003°21'0 0.0
2014-Nov-20 21:34N 47°44' W 003°21'0 0.0
2014-Nov-20 20:34N 47°44' W 003°21'0 0.0
2014-Nov-20 19:34N 47°44' W 003°21'0 0.0
2014-Nov-20 18:33N 47°44' W 003°21'0 0.0
2014-Nov-20 17:34N 47°44' W 003°21'0 0.0
2014-Nov-20 16:33N 47°44' W 003°21'0 0.0
2014-Nov-20 15:34N 47°44' W 003°21'0 0.0
2014-Nov-20 14:34N 47°44' W 003°21'0 0.0
2014-Nov-20 13:34N 47°44' W 003°21'5 4.7
2014-Nov-20 12:33N 47°40' W 003°26'55 6.4
2014-Nov-20 04:06N 47°08' W 002°21'610.5
2014-Nov-20 03:33N 47°13' W 002°16'61 1.2
2014-Nov-18 00:21N 47°39' W 003°37'8 9.9
2014-Nov-17 23:33N 47°40' W 003°26'5 4.8
2014-Nov-17 22:32N 47°44' W 003°21'0 0.0
2014-Nov-17 21:32N 47°44' W 003°21'0 0.0
2014-Nov-17 20:33N 47°44' W 003°21'0 0.0
2014-Nov-17 19:33N 47°44' W 003°21'0 0.0
2014-Nov-17 18:33N 47°44' W 003°21'0 0.0
2014-Nov-17 17:33N 47°44' W 003°21'0 0.0
2014-Nov-17 16:34N 47°44' W 003°21'0 0.0
2014-Nov-17 15:33N 47°44' W 003°21'0 0.0
2014-Nov-17 14:34N 47°44' W 003°21'0 0.0
2014-Nov-17 13:33N 47°44' W 003°21'0 0.0
2014-Nov-17 12:33N 47°44' W 003°21'0 0.0
2014-Nov-17 11:33N 47°44' W 003°21'0 0.0
2014-Nov-17 10:33N 47°44' W 003°21'0 0.0
2014-Nov-17 09:33N 47°44' W 003°21'0 0.0
2014-Nov-17 08:33N 47°44' W 003°21'0 0.0
2014-Nov-17 07:33N 47°44' W 003°21'0 0.0
2014-Nov-17 06:34N 47°44' W 003°21'0 0.0
2014-Nov-17 05:33N 47°44' W 003°21'0 0.0
2014-Nov-17 04:33N 47°44' W 003°21'0 0.0
2014-Nov-17 03:33N 47°44' W 003°21'0 0.0
2014-Nov-17 02:33N 47°44' W 003°21'0 0.0
2014-Nov-17 01:33N 47°44' W 003°21'0 0.0
2014-Nov-17 00:33N 47°44' W 003°21'0 0.0
2014-Nov-16 23:33N 47°44' W 003°21'1 0.8
2014-Nov-16 22:33N 47°43' W 003°22'7 0.1
2014-Nov-14 20:29N 47°40' W 003°32'7 7.7
2014-Nov-14 19:34N 47°43' W 003°22'1 1.0
2014-Nov-14 18:33N 47°44' W 003°21'0 0.0
2014-Nov-14 17:33N 47°44' W 003°21'0 0.0
2014-Nov-14 16:34N 47°44' W 003°21'0 0.0
2014-Nov-14 15:34N 47°44' W 003°21'0 0.0
2014-Nov-14 14:33N 47°44' W 003°21'0 0.0
2014-Nov-14 12:34N 47°44' W 003°21'0 0.0
2014-Nov-14 11:33N 47°44' W 003°21'0 0.0
2014-Nov-14 10:34N 47°44' W 003°21'0 0.0
2014-Nov-14 09:34N 47°44' W 003°21'0 0.0
2014-Nov-14 08:34N 47°44' W 003°21'0 0.0
2014-Nov-14 07:34N 47°44' W 003°21'0 0.0
2014-Nov-14 06:34N 47°44' W 003°21'0 0.0
2014-Nov-14 05:34N 47°44' W 003°21'0 0.0
2014-Nov-14 04:34N 47°44' W 003°21'0 0.0
2014-Nov-14 03:34N 47°44' W 003°21'0 0.0
2014-Nov-14 02:34N 47°44' W 003°21'0 0.0
2014-Nov-14 01:34N 47°44' W 003°21'0 0.0
2014-Nov-14 00:34N 47°44' W 003°21'0 0.0
2014-Nov-13 23:34N 47°44' W 003°21'0 0.0
2014-Nov-13 22:34N 47°44' W 003°21'0 0.0
2014-Nov-13 21:34N 47°44' W 003°21'0 0.0
2014-Nov-13 20:34N 47°44' W 003°21'0 0.0
2014-Nov-13 19:34N 47°44' W 003°21'1 0.8
2014-Nov-13 18:33N 47°43' W 003°22'2010.1
2014-Nov-13 16:33N 47°35' W 003°49'  

Dump ship's entire track history